createdAt,value
2023-05-03T00:01:45.250Z,9.04
2023-05-03T00:04:15.805Z,9.11
2023-05-03T00:06:45.758Z,9.05
2023-05-03T00:09:12.771Z,9.05
2023-05-03T00:11:39.783Z,9.09
2023-05-03T00:14:06.612Z,9.10
2023-05-03T00:16:33.546Z,9.07
2023-05-03T00:19:00.354Z,8.98
2023-05-03T00:21:27.297Z,8.84
2023-05-03T00:23:54.447Z,8.69
2023-05-03T00:26:21.587Z,8.59
2023-05-03T00:28:48.819Z,8.47
2023-05-03T00:31:15.760Z,8.43
2023-05-03T00:33:42.829Z,8.32
2023-05-03T00:36:15.136Z,8.32
2023-05-03T00:38:43.170Z,8.35
2023-05-03T00:41:11.074Z,8.42
2023-05-03T00:43:38.185Z,8.52
2023-05-03T00:46:16.719Z,8.49
2023-05-03T00:48:51.524Z,8.55
2023-05-03T00:51:20.740Z,8.57
2023-05-03T00:53:47.719Z,8.52
2023-05-03T00:56:23.809Z,8.14
2023-05-03T00:58:54.279Z,8.77
2023-05-03T01:01:21.569Z,8.79
2023-05-03T01:03:50.850Z,8.82
2023-05-03T01:06:36.491Z,8.78
2023-05-03T01:09:13.015Z,8.73
2023-05-03T01:11:54.830Z,8.80
2023-05-03T01:14:47.115Z,8.85
2023-05-03T01:17:15.626Z,8.79
2023-05-03T01:19:57.573Z,8.61
2023-05-03T01:22:39.203Z,8.48
2023-05-03T01:25:11.488Z,8.37
2023-05-03T01:27:39.654Z,8.25
2023-05-03T01:30:08.840Z,8.31
2023-05-03T01:32:35.751Z,8.39
2023-05-03T01:35:28.270Z,8.31
2023-05-03T01:37:57.500Z,8.25
2023-05-03T01:40:27.016Z,8.27
2023-05-03T01:42:55.733Z,8.14
2023-05-03T01:45:23.208Z,8.05
2023-05-03T01:47:50.137Z,8.04
2023-05-03T01:50:17.252Z,8.13
2023-05-03T01:52:45.292Z,8.17
2023-05-03T01:55:12.380Z,8.11
2023-05-03T01:57:39.173Z,8.20
2023-05-03T02:00:07.180Z,8.25
2023-05-03T02:02:39.484Z,8.30
2023-05-03T02:05:06.895Z,8.46
2023-05-03T02:07:34.045Z,8.43
2023-05-03T02:10:01.573Z,8.29
2023-05-03T02:12:28.620Z,8.20
2023-05-03T02:14:55.799Z,8.11
2023-05-03T02:17:26.520Z,7.97
2023-05-03T02:19:53.835Z,7.88
2023-05-03T02:22:20.844Z,7.75
2023-05-03T02:24:47.968Z,7.80
2023-05-03T02:27:15.801Z,7.73
2023-05-03T02:29:45.007Z,7.79
2023-05-03T02:32:12.598Z,7.88
2023-05-03T02:34:39.764Z,7.92
2023-05-03T02:37:08.479Z,7.94
2023-05-03T02:39:35.559Z,8.03
2023-05-03T02:42:03.685Z,8.04
2023-05-03T02:44:32.433Z,7.99
2023-05-03T02:47:00.526Z,8.07
2023-05-03T02:49:27.521Z,8.13
2023-05-03T02:51:54.376Z,8.19
2023-05-03T02:54:21.486Z,8.21
2023-05-03T02:56:48.549Z,8.25
2023-05-03T02:59:15.763Z,8.20
2023-05-03T03:01:43.015Z,8.21
2023-05-03T03:04:11.021Z,8.29
2023-05-03T03:06:38.139Z,8.22
2023-05-03T03:09:06.118Z,8.15
2023-05-03T03:11:35.231Z,8.16
2023-05-03T03:14:02.146Z,8.11
2023-05-03T03:16:29.227Z,8.04
2023-05-03T03:18:56.703Z,7.94
2023-05-03T03:21:23.528Z,7.91
2023-05-03T03:23:50.510Z,7.83
2023-05-03T03:26:18.976Z,7.93
2023-05-03T03:28:46.498Z,7.90
2023-05-03T03:31:14.149Z,7.96
2023-05-03T03:33:42.550Z,8.04
2023-05-03T03:36:14.704Z,8.23
2023-05-03T03:38:44.359Z,8.39
2023-05-03T03:41:11.884Z,8.39
2023-05-03T03:43:39.021Z,8.46
2023-05-03T03:46:11.215Z,8.50
2023-05-03T03:48:38.901Z,8.54
2023-05-03T03:51:06.055Z,8.60
2023-05-03T03:53:39.251Z,8.70
2023-05-03T03:56:06.591Z,8.94
2023-05-03T03:58:34.094Z,9.09
2023-05-03T04:01:03.195Z,9.18
2023-05-03T04:03:30.751Z,9.25
2023-05-03T04:05:58.354Z,9.37
2023-05-03T04:08:26.708Z,9.54
2023-05-03T04:10:53.797Z,9.54
2023-05-03T04:13:21.412Z,9.61
2023-05-03T04:15:55.077Z,9.68
2023-05-03T04:18:23.008Z,9.74
2023-05-03T04:20:51.777Z,9.71
2023-05-03T04:23:19.083Z,9.91
2023-05-03T04:25:46.797Z,9.93
2023-05-03T04:28:15.477Z,10.00
2023-05-03T04:30:47.466Z,10.05
2023-05-03T04:33:18.236Z,10.05
2023-05-03T04:35:49.525Z,10.11
2023-05-03T04:38:18.798Z,10.28
2023-05-03T04:40:46.657Z,10.31
2023-05-03T04:43:13.785Z,10.54
2023-05-03T04:45:44.934Z,10.70
2023-05-03T04:48:18.462Z,10.73
2023-05-03T04:50:45.818Z,10.85
2023-05-03T04:53:14.875Z,11.00
2023-05-03T04:55:44.905Z,11.09
2023-05-03T04:58:11.849Z,11.24
2023-05-03T05:00:42.148Z,11.23
2023-05-03T05:03:15.205Z,11.52
2023-05-03T05:05:43.518Z,11.67
2023-05-03T05:08:12.067Z,11.75
2023-05-03T05:10:45.010Z,11.92
2023-05-03T05:13:16.351Z,12.04
2023-05-03T05:15:43.301Z,12.20
2023-05-03T05:18:12.613Z,12.29
2023-05-03T05:20:40.692Z,12.41
2023-05-03T05:23:08.186Z,12.78
2023-05-03T05:25:35.834Z,13.19
2023-05-03T05:28:03.992Z,13.47
2023-05-03T05:30:31.593Z,13.59
2023-05-03T05:32:59.235Z,13.67
2023-05-03T05:35:26.357Z,13.85
2023-05-03T05:37:53.223Z,13.95
2023-05-03T05:40:20.465Z,13.92
2023-05-03T05:42:52.848Z,13.97
2023-05-03T05:45:21.828Z,14.01
2023-05-03T05:47:51.425Z,13.98
2023-05-03T05:50:19.451Z,14.08
2023-05-03T05:52:53.280Z,14.22
2023-05-03T05:55:21.395Z,14.30
2023-05-03T05:57:50.139Z,14.48
2023-05-03T06:00:21.186Z,14.51
2023-05-03T06:02:49.003Z,14.71
2023-05-03T06:05:21.013Z,14.95
2023-05-03T06:07:48.798Z,15.05
2023-05-03T06:10:16.280Z,15.17
2023-05-03T06:12:47.431Z,15.30
2023-05-03T06:15:19.146Z,15.41
2023-05-03T06:17:46.570Z,15.44
2023-05-03T06:20:13.953Z,15.44
2023-05-03T06:22:42.246Z,15.60
2023-05-03T06:25:16.170Z,15.54
2023-05-03T06:27:45.865Z,15.53
2023-05-03T06:30:13.361Z,15.65
2023-05-03T06:32:42.359Z,15.75
2023-05-03T06:35:10.184Z,15.86
2023-05-03T06:37:39.035Z,15.97
2023-05-03T06:40:07.639Z,16.23
2023-05-03T06:42:36.686Z,16.31
2023-05-03T06:45:10.117Z,16.38
2023-05-03T06:47:40.204Z,16.36
2023-05-03T06:50:08.234Z,16.42
2023-05-03T06:52:35.070Z,16.42
2023-05-03T06:55:02.004Z,16.59
2023-05-03T06:57:29.020Z,16.65
2023-05-03T06:59:56.235Z,16.66
2023-05-03T07:02:23.249Z,16.82
2023-05-03T07:04:50.785Z,16.86
2023-05-03T07:07:17.653Z,16.64
2023-05-03T07:09:44.634Z,16.82
2023-05-03T07:12:12.370Z,16.87
2023-05-03T07:14:40.654Z,17.01
2023-05-03T07:17:07.737Z,17.24
2023-05-03T07:19:34.847Z,17.30
2023-05-03T07:22:03.484Z,17.46
2023-05-03T07:24:30.502Z,17.27
2023-05-03T07:26:58.437Z,17.36
2023-05-03T07:29:26.642Z,17.29
2023-05-03T07:31:54.000Z,17.34
2023-05-03T07:34:21.506Z,17.27
2023-05-03T07:36:48.646Z,17.26
2023-05-03T07:39:15.930Z,17.23
2023-05-03T07:41:42.977Z,17.27
2023-05-03T07:44:10.133Z,17.36
2023-05-03T07:46:37.042Z,17.36
2023-05-03T07:49:05.474Z,17.32
2023-05-03T07:51:39.111Z,17.25
2023-05-03T07:54:06.375Z,17.49
2023-05-03T07:56:33.769Z,17.79
2023-05-03T08:01:30.550Z,17.98
2023-05-03T08:03:58.721Z,18.13
2023-05-03T08:06:26.382Z,18.22
2023-05-03T08:08:53.446Z,18.31
2023-05-03T08:11:20.577Z,18.16
2023-05-03T08:13:47.474Z,18.29
2023-05-03T08:16:14.458Z,18.22
2023-05-03T08:18:41.720Z,18.52
2023-05-03T08:21:12.196Z,18.62
2023-05-03T08:23:39.591Z,18.75
2023-05-03T08:26:09.572Z,18.53
2023-05-03T08:28:36.399Z,18.56
2023-05-03T08:31:06.860Z,18.82
2023-05-03T08:33:33.870Z,18.75
2023-05-03T08:36:01.876Z,18.61
2023-05-03T08:38:29.037Z,18.51
2023-05-03T08:40:59.601Z,18.64
2023-05-03T08:43:29.061Z,18.81
2023-05-03T08:45:56.296Z,18.73
2023-05-03T08:48:23.402Z,18.79
2023-05-03T08:50:51.764Z,18.57
2023-05-03T08:53:18.871Z,18.43
2023-05-03T08:55:46.022Z,18.59
2023-05-03T08:58:13.606Z,18.63
2023-05-03T09:00:45.030Z,18.68
2023-05-03T09:03:13.166Z,18.78
2023-05-03T09:05:43.429Z,18.63
2023-05-03T09:08:14.785Z,18.73
2023-05-03T09:10:42.895Z,18.87
2023-05-03T09:13:10.945Z,18.72
2023-05-03T09:15:38.085Z,18.85
2023-05-03T09:18:17.822Z,18.91
2023-05-03T09:20:52.241Z,19.06
2023-05-03T09:23:32.176Z,19.23
2023-05-03T09:26:00.191Z,19.46
2023-05-03T09:28:27.853Z,19.46
2023-05-03T09:31:07.821Z,19.56
2023-05-03T09:33:34.881Z,19.73
2023-05-03T09:36:04.891Z,19.88
2023-05-03T09:38:39.310Z,19.84
2023-05-03T09:41:06.388Z,20.03
2023-05-03T09:43:35.074Z,19.99
2023-05-03T09:46:12.355Z,20.15
2023-05-03T09:48:40.780Z,20.17
2023-05-03T09:51:08.818Z,20.04
2023-05-03T09:53:37.192Z,19.77
2023-05-03T09:56:07.081Z,19.93
2023-05-03T09:58:35.348Z,20.09
2023-05-03T10:01:02.718Z,20.20
2023-05-03T10:03:35.333Z,20.34
2023-05-03T10:06:05.218Z,20.32
2023-05-03T10:08:45.501Z,20.35
2023-05-03T10:11:14.494Z,20.25
2023-05-03T10:13:41.517Z,20.19
2023-05-03T10:16:15.316Z,20.37
2023-05-03T10:18:49.619Z,20.12
2023-05-03T10:21:33.582Z,20.29
2023-05-03T10:24:14.248Z,20.25
2023-05-03T10:26:47.704Z,20.46
2023-05-03T10:29:37.340Z,20.86
2023-05-03T10:32:05.572Z,21.08
2023-05-03T10:34:39.646Z,21.09
2023-05-03T10:37:11.685Z,21.17
2023-05-03T10:39:45.374Z,21.20
2023-05-03T10:42:13.263Z,21.21
2023-05-03T10:44:41.230Z,21.44
2023-05-03T10:47:16.127Z,21.48
2023-05-03T10:49:43.395Z,21.64
2023-05-03T10:52:48.403Z,21.79
2023-05-03T10:55:21.214Z,21.79
2023-05-03T10:57:49.410Z,21.83
2023-05-03T11:00:38.741Z,21.57
2023-05-03T11:03:20.326Z,21.18
2023-05-03T11:05:51.824Z,21.12
2023-05-03T11:08:21.153Z,21.00
2023-05-03T11:10:57.634Z,20.95
2023-05-03T11:13:24.499Z,21.10
2023-05-03T11:15:56.043Z,21.24
2023-05-03T11:18:25.169Z,21.27
2023-05-03T11:20:53.820Z,21.31
2023-05-03T11:23:28.248Z,21.41
2023-05-03T11:25:57.847Z,21.40
2023-05-03T11:28:26.151Z,21.63
2023-05-03T11:30:53.271Z,21.62
2023-05-03T11:33:20.600Z,21.85
2023-05-03T11:35:47.509Z,21.96
2023-05-03T11:38:14.528Z,21.98
2023-05-03T11:40:41.807Z,22.18
2023-05-03T11:43:09.131Z,22.27
2023-05-03T11:45:45.576Z,22.10
2023-05-03T11:48:13.781Z,22.42
2023-05-03T11:50:47.812Z,22.49
2023-05-03T11:53:16.219Z,22.79
2023-05-03T11:55:46.535Z,22.81
2023-05-03T11:58:17.950Z,23.30
2023-05-03T12:00:47.296Z,23.22
2023-05-03T12:03:30.229Z,22.78
2023-05-03T12:05:58.897Z,23.08
2023-05-03T12:08:36.318Z,23.00
2023-05-03T12:11:06.860Z,23.11
2023-05-03T12:13:38.597Z,23.15
2023-05-03T12:18:48.457Z,22.99
2023-05-03T12:23:46.972Z,22.74
2023-05-03T12:26:15.119Z,22.61
2023-05-03T12:28:42.513Z,22.68
2023-05-03T12:33:38.806Z,22.76
2023-05-03T12:36:09.807Z,22.90
2023-05-03T12:38:37.826Z,22.89
2023-05-03T12:41:08.808Z,22.79
2023-05-03T12:43:36.733Z,22.61
2023-05-03T12:48:33.909Z,22.25
2023-05-03T12:51:19.359Z,22.22
2023-05-03T12:53:48.217Z,21.99
2023-05-03T12:56:15.411Z,22.00
2023-05-03T12:59:05.283Z,21.99
2023-05-03T13:04:23.885Z,21.70
2023-05-03T13:06:46.930Z,21.75
2023-05-03T13:11:48.281Z,21.64
2023-05-03T13:14:16.531Z,21.61
2023-05-03T13:16:45.698Z,21.57
2023-05-03T13:19:13.325Z,21.59
2023-05-03T13:21:40.410Z,21.92
2023-05-03T13:24:07.764Z,21.91
2023-05-03T13:26:35.562Z,21.80
2023-05-03T13:29:02.639Z,21.93
2023-05-03T13:31:30.359Z,21.94
2023-05-03T13:33:57.482Z,21.75
2023-05-03T13:36:24.743Z,21.65
2023-05-03T13:38:53.107Z,21.75
2023-05-03T13:41:20.830Z,21.58
2023-05-03T13:43:48.339Z,21.79
2023-05-03T13:46:15.409Z,21.85
2023-05-03T13:48:42.717Z,21.90
2023-05-03T13:51:14.034Z,21.90
2023-05-03T13:53:41.093Z,22.04
2023-05-03T13:56:08.543Z,22.10
2023-05-03T13:58:36.296Z,22.10
2023-05-03T14:01:03.655Z,22.07
2023-05-03T14:03:33.266Z,22.10
2023-05-03T14:06:00.528Z,21.73
2023-05-03T14:08:27.346Z,21.57
2023-05-03T14:10:54.254Z,21.87
2023-05-03T14:13:21.996Z,21.77
2023-05-03T14:15:49.205Z,22.01
2023-05-03T14:18:16.425Z,22.15
2023-05-03T14:20:43.509Z,22.07
2023-05-03T14:23:10.796Z,22.07
2023-05-03T14:25:37.723Z,21.69
2023-05-03T14:28:05.457Z,21.76
2023-05-03T14:30:33.196Z,21.45
2023-05-03T14:33:00.484Z,21.51
2023-05-03T14:35:27.475Z,21.50
2023-05-03T14:37:54.882Z,21.54
2023-05-03T14:40:22.044Z,21.18
2023-05-03T14:42:49.106Z,21.16
2023-05-03T14:45:16.069Z,20.93
2023-05-03T14:47:43.206Z,20.89
2023-05-03T14:50:10.688Z,20.56
2023-05-03T14:52:40.557Z,20.30
2023-05-03T14:55:08.034Z,20.23
2023-05-03T14:57:36.494Z,20.25
2023-05-03T15:00:06.913Z,20.32
2023-05-03T15:02:34.264Z,20.21
2023-05-03T15:05:01.498Z,20.32
2023-05-03T15:07:28.692Z,20.16
2023-05-03T15:09:55.754Z,20.19
2023-05-03T15:12:22.926Z,20.21
2023-05-03T15:14:49.905Z,20.10
2023-05-03T15:17:16.941Z,19.94
2023-05-03T15:19:43.952Z,20.09
2023-05-03T15:22:11.174Z,20.13
2023-05-03T15:24:38.006Z,20.08
2023-05-03T15:27:05.043Z,20.08
2023-05-03T15:29:32.200Z,20.09
2023-05-03T15:31:59.145Z,20.03
2023-05-03T15:34:26.241Z,20.07
2023-05-03T15:36:53.358Z,19.82
2023-05-03T15:39:20.517Z,19.84
2023-05-03T15:41:47.405Z,19.58
2023-05-03T15:44:15.071Z,19.45
2023-05-03T15:46:43.099Z,19.23
2023-05-03T15:49:12.013Z,19.14
2023-05-03T15:51:39.315Z,18.86
2023-05-03T15:54:06.399Z,18.79
2023-05-03T15:56:33.282Z,18.66
2023-05-03T15:59:00.068Z,18.76
2023-05-03T16:01:27.197Z,18.73
2023-05-03T16:03:54.226Z,18.69
2023-05-03T16:06:21.134Z,18.39
2023-05-03T16:08:47.943Z,18.43
2023-05-03T16:11:15.066Z,18.27
2023-05-03T16:13:42.112Z,18.33
2023-05-03T16:16:12.480Z,18.32
2023-05-03T16:18:39.721Z,18.17
2023-05-03T16:21:06.704Z,18.20
2023-05-03T16:23:33.507Z,18.00
2023-05-03T16:26:01.145Z,17.76
2023-05-03T16:28:28.021Z,17.57
2023-05-03T16:30:55.036Z,17.52
2023-05-03T16:33:22.454Z,17.51
2023-05-03T16:35:50.050Z,17.39
2023-05-03T16:38:17.192Z,17.31
2023-05-03T16:40:44.132Z,17.16
2023-05-03T16:43:11.454Z,17.22
2023-05-03T16:45:38.594Z,17.16
2023-05-03T16:48:08.181Z,16.96
2023-05-03T16:50:43.254Z,16.98
2023-05-03T16:53:12.039Z,16.68
2023-05-03T16:55:39.144Z,16.58
2023-05-03T16:58:06.193Z,16.56
2023-05-03T17:00:33.568Z,16.50
2023-05-03T17:03:00.698Z,16.41
2023-05-03T17:05:33.241Z,16.35
2023-05-03T17:08:03.521Z,16.31
2023-05-03T17:10:31.752Z,16.46
2023-05-03T17:13:02.035Z,16.38
2023-05-03T17:15:29.058Z,16.31
2023-05-03T17:17:56.088Z,16.23
2023-05-03T17:20:23.174Z,16.25
2023-05-03T17:22:50.232Z,16.12
2023-05-03T17:25:17.400Z,15.83
2023-05-03T17:27:44.493Z,15.91
2023-05-03T17:30:21.120Z,15.85
2023-05-03T17:32:48.569Z,15.86
2023-05-03T17:35:15.813Z,15.88
2023-05-03T17:37:42.607Z,15.87
2023-05-03T17:40:10.692Z,15.85
2023-05-03T17:42:40.932Z,15.72
2023-05-03T17:45:09.050Z,15.54
2023-05-03T17:47:35.940Z,15.60
2023-05-03T17:50:03.027Z,15.44
2023-05-03T17:52:30.125Z,15.48
2023-05-03T17:54:57.516Z,15.44
2023-05-03T17:57:24.329Z,15.27
2023-05-03T17:59:51.990Z,15.34
2023-05-03T18:02:19.110Z,15.36
2023-05-03T18:04:47.022Z,15.39
2023-05-03T18:07:14.926Z,15.31
2023-05-03T18:09:41.837Z,15.28
2023-05-03T18:12:08.779Z,15.18
2023-05-03T18:14:36.835Z,15.22
2023-05-03T18:17:03.677Z,15.21
2023-05-03T18:19:31.339Z,15.20
2023-05-03T18:21:58.453Z,15.23
2023-05-03T18:24:25.309Z,15.27
2023-05-03T18:26:52.635Z,15.20
2023-05-03T18:29:19.489Z,14.98
2023-05-03T18:31:50.423Z,14.92
2023-05-03T18:34:17.441Z,14.92
2023-05-03T18:40:43.871Z,14.67
2023-05-03T18:43:10.737Z,14.74
2023-05-03T18:45:41.017Z,14.76
2023-05-03T18:48:08.347Z,14.62
2023-05-03T18:50:36.228Z,14.59
2023-05-03T18:53:03.967Z,14.64
2023-05-03T18:55:30.879Z,14.72
2023-05-03T18:57:58.914Z,14.58
2023-05-03T19:00:26.048Z,14.60
2023-05-03T19:02:52.948Z,14.48
2023-05-03T19:05:20.251Z,14.41
2023-05-03T19:07:48.423Z,14.41
2023-05-03T19:10:17.157Z,14.36
2023-05-03T19:13:05.076Z,14.35
2023-05-03T19:15:40.730Z,14.24
2023-05-03T19:18:08.245Z,14.15
2023-05-03T19:20:35.162Z,14.09
2023-05-03T19:23:02.447Z,14.06
2023-05-03T19:25:29.256Z,14.02
2023-05-03T19:27:56.162Z,13.94
2023-05-03T19:30:23.128Z,13.98
2023-05-03T19:32:50.154Z,13.98
2023-05-03T19:35:16.977Z,13.96
2023-05-03T19:37:44.661Z,13.90
2023-05-03T19:40:12.384Z,14.02
2023-05-03T19:42:39.462Z,13.97
2023-05-03T19:45:06.643Z,14.05
2023-05-03T19:47:33.864Z,13.98
2023-05-03T19:50:00.932Z,14.07
2023-05-03T19:52:40.373Z,14.12
2023-05-03T19:55:07.777Z,14.02
2023-05-03T19:57:44.825Z,13.94
2023-05-03T20:00:14.318Z,13.85
2023-05-03T20:02:41.581Z,13.88
2023-05-03T20:05:08.853Z,13.79
2023-05-03T20:07:35.755Z,13.72
2023-05-03T20:11:03.983Z,13.77
2023-05-03T20:13:30.880Z,13.71
2023-05-03T20:15:57.888Z,13.66
2023-05-03T20:18:24.745Z,13.60
2023-05-03T20:20:51.565Z,13.65
2023-05-03T20:23:18.649Z,13.53
2023-05-03T20:25:45.587Z,13.58
2023-05-03T20:28:13.124Z,13.56
2023-05-03T20:30:40.002Z,13.33
2023-05-03T20:33:07.423Z,13.49
2023-05-03T20:35:36.399Z,13.51
2023-05-03T20:38:03.582Z,13.43
2023-05-03T20:40:30.549Z,13.35
2023-05-03T20:42:57.755Z,13.10
2023-05-03T20:45:24.565Z,13.13
2023-05-03T20:47:51.645Z,13.10
2023-05-03T20:50:18.891Z,13.02
2023-05-03T20:52:46.053Z,13.09
2023-05-03T20:55:12.842Z,13.01
2023-05-03T20:57:41.286Z,12.89
2023-05-03T21:00:11.562Z,12.94
2023-05-03T21:02:38.965Z,12.94
2023-05-03T21:05:06.464Z,12.88
2023-05-03T21:07:33.507Z,12.82
2023-05-03T21:10:00.563Z,12.79
2023-05-03T21:12:29.075Z,12.75
2023-05-03T21:14:55.907Z,12.90
2023-05-03T21:17:22.947Z,12.98
2023-05-03T21:19:49.871Z,12.83
2023-05-03T21:22:17.049Z,12.79
2023-05-03T21:24:50.959Z,12.77
2023-05-03T21:27:19.905Z,12.84
2023-05-03T21:29:46.672Z,12.92
2023-05-03T21:32:13.599Z,12.91
2023-05-03T21:34:40.545Z,12.77
2023-05-03T21:37:07.468Z,12.83
2023-05-03T21:39:34.384Z,12.94
2023-05-03T21:42:01.344Z,12.88
2023-05-03T21:44:28.258Z,12.84
2023-05-03T21:46:55.533Z,12.81
2023-05-03T21:49:22.453Z,12.73
2023-05-03T21:51:49.244Z,12.72
2023-05-03T21:54:17.326Z,12.83
2023-05-03T21:56:44.146Z,12.72
2023-05-03T21:59:11.110Z,12.70
2023-05-03T22:01:38.103Z,12.61
2023-05-03T22:04:05.795Z,12.58
2023-05-03T22:06:32.801Z,12.63
2023-05-03T22:09:00.035Z,12.48
2023-05-03T22:11:26.898Z,12.58
2023-05-03T22:14:06.758Z,12.56
2023-05-03T22:16:35.637Z,12.47
2023-05-03T22:19:02.628Z,12.33
2023-05-03T22:21:29.502Z,12.59
2023-05-03T22:23:56.425Z,12.61
2023-05-03T22:26:24.360Z,12.60
2023-05-03T22:28:52.045Z,12.67
2023-05-03T22:31:19.041Z,12.52
2023-05-03T22:33:48.874Z,12.44
2023-05-03T22:36:16.189Z,12.37
2023-05-03T22:38:43.474Z,12.23
2023-05-03T22:41:10.526Z,12.30
2023-05-03T22:43:37.651Z,12.21
2023-05-03T22:46:04.615Z,12.13
2023-05-03T22:48:32.715Z,12.05
2023-05-03T22:50:59.963Z,12.20
2023-05-03T22:53:26.765Z,12.23
2023-05-03T22:55:57.820Z,12.30
2023-05-03T22:58:25.932Z,12.26
2023-05-03T23:00:53.161Z,12.29
2023-05-03T23:03:21.561Z,12.22
2023-05-03T23:05:51.470Z,12.25
2023-05-03T23:08:18.737Z,12.22
2023-05-03T23:10:45.764Z,12.15
2023-05-03T23:13:13.157Z,12.00
2023-05-03T23:15:40.189Z,11.89
2023-05-03T23:18:07.374Z,11.99
2023-05-03T23:20:34.465Z,12.00
2023-05-03T23:23:01.264Z,12.06
2023-05-03T23:25:28.262Z,11.98
2023-05-03T23:27:55.227Z,12.00
2023-05-03T23:30:22.710Z,12.07
2023-05-03T23:32:51.540Z,11.94
2023-05-03T23:35:19.666Z,11.98
2023-05-03T23:37:46.894Z,11.92
2023-05-03T23:40:13.727Z,12.01
2023-05-03T23:42:41.425Z,11.91
2023-05-03T23:45:09.844Z,11.99
2023-05-03T23:47:37.126Z,12.00
2023-05-03T23:50:05.047Z,12.00
2023-05-03T23:52:32.349Z,12.02
2023-05-03T23:54:59.182Z,12.01
2023-05-03T23:57:26.739Z,12.00
2023-05-03T23:59:53.812Z,11.95
